Time;durP1;ratioP1;P1;durP2;ratioP2;P2;SDS_P1;SDS_P2;PMS_P1;PMS_P2;Temp;Humidity;BMP_temperature;BMP_pressure;BME280_temperature;BME280_humidity;BME280_pressure;Samples;Min_cycle;Max_cycle;Signal;HPM_P1;HPM_P2
2022/06/10 00:01:12;;;;;;;4.93;3.30;;;;;;;12.31;88.74;101443.53;4938572;28;20045;-71
2022/06/10 00:03:38;;;;;;;7.43;3.50;;;;;;;12.25;89.11;101446.69;4934807;28;20073;-71
2022/06/10 00:06:05;;;;;;;4.65;3.60;;;;;;;12.29;88.87;101442.81;4967622;28;20115;-70
2022/06/10 00:08:32;;;;;;;4.40;3.50;;;;;;;12.38;88.49;101441.22;4954648;28;20044;-73
2022/06/10 00:10:58;;;;;;;4.88;3.72;;;;;;;12.35;88.92;101450.28;4938789;28;20022;-72
2022/06/10 00:13:25;;;;;;;4.43;4.03;;;;;;;12.32;89.09;101442.56;4974520;28;20021;-72
2022/06/10 00:15:50;;;;;;;6.20;3.80;;;;;;;12.24;89.29;101447.69;4955576;28;20789;-72
2022/06/10 00:18:16;;;;;;;3.70;3.40;;;;;;;12.23;89.21;101440.69;4956248;28;20046;-71
2022/06/10 00:20:41;;;;;;;4.88;3.55;;;;;;;12.33;88.58;101444.22;4940134;28;20121;-72
2022/06/10 00:23:07;;;;;;;5.28;3.75;;;;;;;12.19;89.28;101445.41;4939994;28;20014;-71
2022/06/10 00:25:33;;;;;;;8.98;3.80;;;;;;;12.33;88.73;101448.72;4953729;28;20030;-70
2022/06/10 00:27:58;;;;;;;4.55;3.55;;;;;;;12.23;89.01;101446.00;4957056;28;20579;-73
2022/06/10 00:30:26;;;;;;;5.68;3.88;;;;;;;12.33;89.19;101441.56;4962590;28;20806;-72
2022/06/10 00:32:51;;;;;;;4.78;3.83;;;;;;;12.48;88.93;101443.88;4960879;28;20720;-72
2022/06/10 00:35:17;;;;;;;5.50;3.95;;;;;;;12.42;88.93;101439.94;4939440;28;20121;-71
2022/06/10 00:37:42;;;;;;;3.83;3.47;;;;;;;12.37;88.69;101436.88;4939725;28;20058;-72
2022/06/10 00:40:20;;;;;;;4.82;3.55;;;;;;;12.30;88.77;101443.66;4975497;28;20380;-70
2022/06/10 00:42:46;;;;;;;3.80;3.50;;;;;;;12.40;87.81;101446.38;4958986;28;20049;-72
2022/06/10 00:45:49;;;;;;;4.15;3.72;;;;;;;12.34;88.81;101443.28;4957778;28;20026;-72
2022/06/10 00:48:26;;;;;;;4.05;3.72;;;;;;;12.30;88.61;101441.84;4976236;28;20488;-72
2022/06/10 00:50:52;;;;;;;6.13;4.00;;;;;;;12.30;88.33;101439.19;4976631;28;20269;-72
2022/06/10 00:53:19;;;;;;;4.15;3.75;;;;;;;12.19;88.13;101441.91;4973359;28;20588;-72
2022/06/10 00:55:44;;;;;;;4.05;3.80;;;;;;;12.33;87.61;101436.28;4942158;28;20086;-72
2022/06/10 00:58:21;;;;;;;4.35;3.78;;;;;;;12.29;86.84;101440.16;4975118;28;20040;-71
2022/06/10 01:00:46;;;;;;;3.90;3.70;;;;;;;12.18;87.19;101442.88;4971853;28;20081;-72
2022/06/10 01:03:11;;;;;;;3.97;3.67;;;;;;;12.09;88.15;101441.84;4962261;28;20026;-72
2022/06/10 01:05:37;;;;;;;5.57;3.60;;;;;;;12.01;88.59;101441.66;4972338;28;20947;-70
2022/06/10 01:08:11;;;;;;;4.10;3.67;;;;;;;11.97;88.75;101446.41;4974314;28;20032;-72
2022/06/10 01:11:11;;;;;;;4.78;3.55;;;;;;;11.99;88.34;101441.78;4957664;28;20943;-72
2022/06/10 01:13:53;;;;;;;4.38;3.20;;;;;;;12.00;88.04;101450.56;4944441;28;20014;-71
2022/06/10 01:16:53;;;;;;;6.75;3.80;;;;;;;11.84;89.28;101451.00;4954800;28;20117;-71
2022/06/10 01:19:31;;;;;;;4.25;3.55;;;;;;;11.96;89.19;101455.31;4957064;28;20931;-72
2022/06/10 01:22:02;;;;;;;3.85;3.50;;;;;;;11.97;88.39;101449.03;4975090;28;20057;-71
2022/06/10 01:24:30;;;;;;;3.78;3.33;;;;;;;11.93;88.31;101444.94;4974178;28;20909;-72
2022/06/10 01:27:48;;;;;;;4.57;3.65;;;;;;;11.89;88.02;101446.16;4975058;28;20030;-69
2022/06/10 01:30:42;;;;;;;3.40;3.20;;;;;;;11.84;88.43;101443.03;4971376;28;20130;-72
2022/06/10 01:33:21;;;;;;;;;;;;;;;11.69;88.64;101440.69;4977604;28;20101;-69
2022/06/10 01:36:09;;;;;;;5.97;3.65;;;;;;;11.79;88.28;101447.91;4975211;28;19904;-71
2022/06/10 01:38:44;;;;;;;5.75;3.38;;;;;;;11.77;87.90;101444.53;4969212;28;20117;-72
2022/06/10 01:41:27;;;;;;;6.78;3.50;;;;;;;11.52;88.47;101441.25;4981206;28;20029;-70
2022/06/10 01:44:02;;;;;;;4.00;3.65;;;;;;;11.64;88.48;101455.31;4977704;28;20075;-70
2022/06/10 01:46:32;;;;;;;3.70;3.33;;;;;;;11.80;87.53;101449.56;4971802;28;20018;-72
2022/06/10 01:49:08;;;;;;;3.55;3.33;;;;;;;11.73;87.43;101443.09;4980258;28;20025;-70
2022/06/10 01:51:46;;;;;;;3.45;3.22;;;;;;;11.73;86.95;101448.38;4976522;28;20018;-73
2022/06/10 01:54:41;;;;;;;3.78;3.47;;;;;;;11.58;87.91;101450.50;4978429;28;20037;-70
2022/06/10 01:57:19;;;;;;;3.92;3.63;;;;;;;11.37;88.48;101451.28;4991196;28;20531;-71
2022/06/10 01:59:55;;;;;;;4.65;4.00;;;;;;;11.26;88.78;101441.56;4980954;28;20488;-72
2022/06/10 02:02:23;;;;;;;4.65;3.40;;;;;;;11.62;87.30;101452.78;4963269;28;20694;-69
2022/06/10 02:04:51;;;;;;;3.70;3.50;;;;;;;11.55;86.98;101443.66;4984600;28;20010;-72
2022/06/10 02:07:30;;;;;;;6.70;3.80;;;;;;;11.34;87.48;101444.44;4971360;28;19994;-72
2022/06/10 02:10:42;;;;;;;4.75;3.50;;;;;;;11.23;88.07;101443.63;4977755;28;20211;-72
2022/06/10 02:13:10;;;;;;;3.95;3.50;;;;;;;11.36;87.70;101452.25;4970726;28;20006;-69
2022/06/10 02:15:38;;;;;;;3.58;3.35;;;;;;;11.29;88.07;101451.06;4972305;28;20457;-71
2022/06/10 02:18:31;;;;;;;5.13;3.60;;;;;;;11.19;88.43;101445.66;4973668;28;20014;-69
2022/06/10 02:21:00;;;;;;;3.83;3.55;;;;;;;11.31;88.00;101449.97;4960056;28;20855;-71
2022/06/10 02:23:27;;;;;;;5.80;3.67;;;;;;;11.47;87.14;101454.03;4953293;28;20080;-71
2022/06/10 02:25:57;;;;;;;4.35;3.50;;;;;;;11.36;87.15;101456.72;4953304;28;20045;-72
2022/06/10 02:28:25;;;;;;;5.75;3.92;;;;;;;11.24;87.66;101454.09;4958889;28;20083;-72
2022/06/10 02:31:04;;;;;;;7.55;3.80;;;;;;;11.27;87.59;101463.59;4956481;28;20017;-71
2022/06/10 02:33:30;;;;;;;5.50;3.78;;;;;;;11.25;87.53;101468.16;4955638;28;20184;-71
2022/06/10 02:36:12;;;;;;;5.85;3.78;;;;;;;11.24;88.37;101464.69;4955922;28;20026;-70
2022/06/10 02:39:03;;;;;;;8.20;3.88;;;;;;;11.12;89.11;101470.97;4945825;28;20002;-72
2022/06/10 02:41:38;;;;;;;3.72;3.45;;;;;;;11.19;88.73;101472.16;4965498;28;20038;-72
2022/06/10 02:44:10;;;;;;;5.95;3.85;;;;;;;11.12;88.22;101476.25;4941755;28;20156;-71
2022/06/10 02:47:06;;;;;;;4.10;3.70;;;;;;;11.11;88.41;101474.56;4970028;28;20014;-72
2022/06/10 02:49:31;;;;;;;3.97;3.45;;;;;;;11.22;87.99;101485.16;4967965;28;20022;-71
2022/06/10 02:51:57;;;;;;;3.80;3.50;;;;;;;11.09;87.91;101487.09;4969916;28;20033;-71
2022/06/10 02:54:31;;;;;;;6.55;4.18;;;;;;;11.10;87.96;101478.19;4972586;28;20498;-72
2022/06/10 02:56:57;;;;;;;4.15;3.85;;;;;;;10.98;88.07;101483.50;4957196;28;20021;-72
2022/06/10 03:02:10;;;;;;;4.40;3.90;;;;;;;10.95;88.38;101480.25;4950643;28;20539;-72
2022/06/10 03:04:41;;;;;;;3.85;3.55;;;;;;;10.90;88.89;101485.06;4971451;28;20956;-71
2022/06/10 03:07:23;;;;;;;5.15;3.78;;;;;;;10.93;88.83;101488.31;4975416;28;20011;-72
2022/06/10 03:09:56;;;;;;;3.88;3.55;;;;;;;10.97;88.49;101483.59;4969860;28;20140;-72
2022/06/10 03:12:50;;;;;;;4.93;3.70;;;;;;;10.80;89.14;101493.75;4974258;28;20929;-71
2022/06/10 03:15:24;;;;;;;;;;;;;;;10.77;89.26;101493.13;4969251;28;20177;-72
2022/06/10 03:18:03;;;;;;;4.35;3.63;;;;;;;10.81;88.76;101502.50;4971072;28;19905;-72
2022/06/10 03:20:41;;;;;;;4.57;3.50;;;;;;;10.78;88.78;101503.59;4955991;28;20126;-71
2022/06/10 03:23:17;;;;;;;7.03;3.70;;;;;;;10.80;89.10;101498.16;4973925;28;20037;-70
2022/06/10 03:25:53;;;;;;;4.75;3.60;;;;;;;10.78;88.79;101498.28;4934739;28;20067;-72
2022/06/10 03:28:23;;;;;;;3.90;3.50;;;;;;;10.91;88.86;101500.81;4955252;28;20022;-72
2022/06/10 03:30:59;;;;;;;3.90;3.60;;;;;;;10.91;88.18;101503.47;4970395;28;20025;-71
2022/06/10 03:33:50;;;;;;;5.15;3.70;;;;;;;10.99;87.51;101502.88;4972965;28;20057;-70
2022/06/10 03:36:17;;;;;;;4.13;3.80;;;;;;;10.95;87.64;101502.25;4951953;28;20035;-72
2022/06/10 03:38:47;;;;;;;3.67;3.38;;;;;;;10.97;87.38;101504.78;4957980;28;20327;-72
2022/06/10 03:41:24;;;;;;;4.03;3.50;;;;;;;10.89;88.46;101500.09;4971299;28;20221;-70
2022/06/10 03:43:51;;;;;;;10.65;3.47;;;;;;;10.86;88.95;101508.31;4960519;28;20054;-70
2022/06/10 03:46:17;;;;;;;4.10;3.60;;;;;;;10.94;89.29;101505.03;4949149;28;20025;-72
2022/06/10 03:48:43;;;;;;;3.72;3.45;;;;;;;10.87;88.51;101506.47;4937654;28;20010;-71
2022/06/10 03:51:09;;;;;;;4.32;3.92;;;;;;;10.92;88.73;101505.16;4972592;28;20090;-71
2022/06/10 03:53:35;;;;;;;4.85;3.90;;;;;;;11.09;89.15;101509.13;4995825;28;20001;-72
2022/06/10 03:56:00;;;;;;;3.72;3.42;;;;;;;11.14;88.40;101514.09;4986572;28;20361;-72
2022/06/10 03:58:26;;;;;;;3.80;3.50;;;;;;;11.07;88.70;101519.00;4984867;28;20875;-72
2022/06/10 04:00:51;;;;;;;5.78;3.55;;;;;;;11.07;88.77;101515.50;4949426;28;20036;-71
2022/06/10 04:03:17;;;;;;;4.10;3.70;;;;;;;11.15;88.86;101531.63;4984543;28;20401;-72
2022/06/10 04:05:42;;;;;;;4.28;3.88;;;;;;;11.12;88.84;101531.88;4959078;28;20022;-72
2022/06/10 04:08:08;;;;;;;3.70;3.40;;;;;;;11.11;88.73;101535.50;4956795;28;20082;-72
2022/06/10 04:10:33;;;;;;;4.40;3.70;;;;;;;11.14;88.83;101532.63;4940769;28;21014;-72
2022/06/10 04:12:59;;;;;;;4.30;3.90;;;;;;;11.20;88.56;101531.31;4961177;28;20284;-71
2022/06/10 04:15:27;;;;;;;3.70;3.22;;;;;;;11.16;88.46;101528.03;4960146;28;20018;-72
2022/06/10 04:17:53;;;;;;;3.40;3.20;;;;;;;11.21;88.46;101530.31;4978513;28;20894;-70
2022/06/10 04:20:21;;;;;;;3.30;3.10;;;;;;;11.14;88.67;101537.91;4993862;28;20026;-71
2022/06/10 04:22:46;;;;;;;3.60;3.25;;;;;;;11.12;88.75;101537.19;4994528;28;20018;-69
2022/06/10 04:25:12;;;;;;;3.72;3.50;;;;;;;11.05;88.90;101534.16;4994495;28;20028;-72
2022/06/10 04:27:38;;;;;;;3.67;3.40;;;;;;;11.03;88.99;101544.06;4944015;28;20168;-71
2022/06/10 04:30:05;;;;;;;3.42;3.13;;;;;;;11.18;88.58;101539.34;4956515;28;20448;-71
2022/06/10 04:32:30;;;;;;;3.50;3.22;;;;;;;11.06;88.81;101541.16;4977934;28;20640;-69
2022/06/10 04:34:56;;;;;;;3.70;3.40;;;;;;;11.14;88.91;101537.91;4995190;28;20090;-72
2022/06/10 04:37:21;;;;;;;3.88;3.50;;;;;;;11.16;89.12;101541.28;4985544;28;20151;-70
2022/06/10 04:39:47;;;;;;;6.88;3.47;;;;;;;11.25;88.93;101548.50;4935308;28;20173;-69
2022/06/10 04:42:12;;;;;;;3.38;3.10;;;;;;;11.30;89.05;101532.25;4972534;28;20026;-71
2022/06/10 04:44:38;;;;;;;3.63;3.40;;;;;;;11.37;89.06;101543.19;4952003;28;20188;-69
2022/06/10 04:47:06;;;;;;;4.43;3.40;;;;;;;11.54;88.62;101545.34;4943161;28;20126;-70
2022/06/10 04:49:31;;;;;;;4.35;3.30;;;;;;;11.63;88.55;101547.25;4939832;28;20056;-70
2022/06/10 04:51:57;;;;;;;7.35;3.35;;;;;;;11.66;88.91;101543.50;4921469;28;20038;-69
2022/06/10 04:54:22;;;;;;;4.70;3.55;;;;;;;11.83;88.27;101539.47;4956665;28;20117;-70
2022/06/10 04:56:48;;;;;;;3.80;3.38;;;;;;;11.83;88.68;101550.06;4950408;28;20103;-71
2022/06/10 04:59:14;;;;;;;5.30;3.35;;;;;;;11.95;88.56;101543.81;4946322;28;20029;-71
2022/06/10 05:01:39;;;;;;;3.47;3.28;;;;;;;12.12;88.22;101538.94;4968969;28;20054;-69
2022/06/10 05:04:04;;;;;;;3.50;3.20;;;;;;;12.28;87.70;101538.47;4959656;28;20014;-70
2022/06/10 05:06:30;;;;;;;4.75;3.33;;;;;;;12.43;87.29;101546.97;4975601;28;20640;-71
2022/06/10 05:08:56;;;;;;;4.85;3.53;;;;;;;12.57;86.87;101548.47;4960135;28;20270;-72
2022/06/10 05:11:22;;;;;;;3.97;3.03;;;;;;;12.76;86.56;101547.72;4972147;28;20172;-70
2022/06/10 05:13:47;;;;;;;3.80;3.22;;;;;;;12.81;86.34;101550.84;4979117;28;20676;-70
2022/06/10 05:16:13;;;;;;;7.70;3.42;;;;;;;12.83;86.64;101551.53;4978880;28;20011;-70
2022/06/10 05:18:39;;;;;;;3.40;3.00;;;;;;;12.90;85.92;101555.34;4994259;28;20513;-71
2022/06/10 05:21:04;;;;;;;4.43;3.10;;;;;;;12.89;87.12;101556.34;4945420;28;20140;-72
2022/06/10 05:23:30;;;;;;;3.40;3.10;;;;;;;12.94;85.85;101556.78;4983071;28;20068;-71
2022/06/10 05:25:55;;;;;;;7.07;3.05;;;;;;;13.03;85.82;101545.38;4969692;28;20465;-68
2022/06/10 05:28:21;;;;;;;5.55;3.25;;;;;;;13.10;85.96;101550.13;4970197;28;20049;-70
2022/06/10 05:30:50;;;;;;;4.78;3.30;;;;;;;13.25;85.26;101551.44;4956262;28;21078;-69
2022/06/10 05:33:16;;;;;;;3.25;3.00;;;;;;;13.36;84.29;101547.91;4974424;28;20257;-71
2022/06/10 05:35:41;;;;;;;5.32;3.22;;;;;;;13.52;84.30;101550.88;4970518;28;20809;-71
2022/06/10 05:38:07;;;;;;;3.40;2.90;;;;;;;13.62;84.87;101553.56;4936438;28;20010;-71
2022/06/10 05:40:33;;;;;;;3.03;2.80;;;;;;;13.76;84.55;101551.47;4958329;28;20185;-71
2022/06/10 05:42:58;;;;;;;3.10;2.78;;;;;;;13.71;82.53;101549.25;4977387;28;20130;-71
2022/06/10 05:45:24;;;;;;;4.05;2.72;;;;;;;13.86;82.83;101553.19;4975413;28;20147;-71
2022/06/10 05:47:52;;;;;;;6.20;3.08;;;;;;;14.03;83.16;101559.63;4975470;28;20015;-68
2022/06/10 05:50:27;;;;;;;4.85;2.45;;;;;;;14.12;82.11;101562.44;4957500;28;20026;-70
2022/06/10 05:52:52;;;;;;;7.22;2.70;;;;;;;14.20;81.50;101567.88;4959249;28;20137;-71
2022/06/10 05:55:19;;;;;;;5.15;2.60;;;;;;;14.22;81.36;101568.59;4980224;28;20002;-71
2022/06/10 05:57:46;;;;;;;4.88;2.90;;;;;;;14.33;80.77;101571.13;4962097;28;20444;-70
2022/06/10 06:00:15;;;;;;;4.30;2.70;;;;;;;14.53;80.38;101566.59;4968949;28;20018;-70
2022/06/10 06:02:41;;;;;;;3.58;2.50;;;;;;;14.60;81.00;101564.22;4974202;28;20079;-69
2022/06/10 06:05:10;;;;;;;2.78;2.53;;;;;;;14.46;79.11;101573.47;4975832;28;20990;-70
2022/06/10 06:07:35;;;;;;;2.85;2.60;;;;;;;14.54;79.84;101570.13;4972677;28;20829;-71
2022/06/10 06:10:01;;;;;;;5.90;2.60;;;;;;;14.71;79.81;101572.06;4979663;28;20011;-71
2022/06/10 06:12:26;;;;;;;6.13;2.40;;;;;;;14.83;78.10;101574.56;4960640;28;20345;-71
2022/06/10 06:14:52;;;;;;;4.80;2.80;;;;;;;14.90;77.71;101575.66;4976221;28;19998;-71
2022/06/10 06:17:19;;;;;;;4.70;2.60;;;;;;;15.02;78.25;101577.19;4956817;28;20009;-70
2022/06/10 06:19:44;;;;;;;3.30;2.42;;;;;;;15.01;78.94;101580.00;4956134;28;20156;-71
2022/06/10 06:22:09;;;;;;;4.07;2.58;;;;;;;15.03;78.43;101584.19;4957461;28;20343;-71
2022/06/10 06:24:35;;;;;;;2.90;2.45;;;;;;;15.23;77.97;101584.97;4956953;28;20030;-72
2022/06/10 06:27:01;;;;;;;2.67;2.40;;;;;;;15.21;77.38;101576.25;4958868;28;20138;-71
2022/06/10 06:29:27;;;;;;;4.30;2.50;;;;;;;15.29;77.50;101588.88;4933909;28;20014;-70
2022/06/10 06:31:55;;;;;;;4.60;2.65;;;;;;;15.41;77.02;101582.38;4974066;28;20019;-71
2022/06/10 06:34:21;;;;;;;2.20;2.05;;;;;;;15.56;76.40;101585.34;4976666;28;20110;-71
2022/06/10 06:36:48;;;;;;;3.85;2.42;;;;;;;15.56;74.85;101587.19;4980515;28;20237;-70
2022/06/10 06:39:14;;;;;;;4.25;2.30;;;;;;;15.63;74.82;101593.59;4942278;28;20022;-70
2022/06/10 06:41:39;;;;;;;2.83;2.10;;;;;;;15.70;73.77;101593.84;4956720;28;20460;-71
2022/06/10 06:44:07;;;;;;;3.88;2.40;;;;;;;15.65;72.86;101591.63;4960551;28;20011;-71
2022/06/10 06:46:33;;;;;;;2.53;2.33;;;;;;;15.66;73.06;101587.97;4974405;28;20037;-71
2022/06/10 06:48:59;;;;;;;3.35;2.10;;;;;;;15.73;73.06;101586.38;4975399;28;20018;-72
2022/06/10 06:51:25;;;;;;;4.57;2.22;;;;;;;15.64;73.19;101587.28;4976445;28;21210;-72
2022/06/10 06:53:51;;;;;;;4.15;2.42;;;;;;;15.70;74.04;101597.34;4973294;28;20462;-71
2022/06/10 06:56:16;;;;;;;5.22;2.10;;;;;;;15.71;75.07;101593.72;4974439;28;20027;-71
2022/06/10 06:58:42;;;;;;;4.22;2.28;;;;;;;15.85;74.93;101594.19;4978753;28;20010;-71
2022/06/10 07:01:07;;;;;;;5.88;2.67;;;;;;;15.91;74.87;101588.28;4937832;28;20172;-71
2022/06/10 07:03:33;;;;;;;3.83;2.13;;;;;;;16.00;74.58;101597.22;4978059;28;20276;-71
2022/06/10 07:05:58;;;;;;;4.88;2.33;;;;;;;16.05;73.96;101598.44;4959465;28;20110;-70
2022/06/10 07:08:31;;;;;;;3.22;2.13;;;;;;;16.02;73.99;101612.09;4977645;28;20481;-71
2022/06/10 07:11:02;;;;;;;4.35;2.03;;;;;;;16.04;72.98;101604.75;4929346;28;20118;-70
2022/06/10 07:13:28;;;;;;;4.78;2.28;;;;;;;16.09;73.18;101604.28;4951729;28;20925;-71
2022/06/10 07:15:54;;;;;;;3.45;2.20;;;;;;;16.17;73.76;101600.88;4963734;28;20086;-70
2022/06/10 07:18:19;;;;;;;4.53;2.22;;;;;;;16.29;73.19;101602.31;4981731;28;20638;-73
2022/06/10 07:20:45;;;;;;;5.55;2.40;;;;;;;16.39;72.46;101600.41;4963004;28;20030;-72
2022/06/10 07:23:10;;;;;;;2.67;1.83;;;;;;;16.49;71.90;101611.00;4977324;28;20518;-72
2022/06/10 07:25:36;;;;;;;4.57;2.30;;;;;;;16.52;72.52;101608.03;4980835;28;20450;-72
2022/06/10 07:28:01;;;;;;;4.93;2.15;;;;;;;16.56;72.05;101617.41;4963222;28;20134;-71
2022/06/10 07:30:28;;;;;;;3.30;1.90;;;;;;;16.66;71.87;101603.94;4978117;28;20423;-71
2022/06/10 07:32:54;;;;;;;3.72;1.95;;;;;;;16.76;70.31;101614.56;4954750;28;20532;-72
2022/06/10 07:35:20;;;;;;;3.58;2.13;;;;;;;17.02;70.86;101613.75;4914790;28;20725;-70
2022/06/10 07:37:46;;;;;;;2.45;2.17;;;;;;;17.15;70.35;101614.16;4981054;28;20014;-71
2022/06/10 07:41:56;;;;;;;2.42;2.05;;;;;;;17.32;69.08;101615.09;4965698;28;20163;-72
2022/06/10 07:43:01;;;;;;;4.32;2.42;;;;;;;17.42;68.70;101615.78;4982071;28;20018;-72
2022/06/10 07:45:28;;;;;;;3.85;2.08;;;;;;;17.42;70.19;101615.78;4975934;28;20018;-71
2022/06/10 07:47:53;;;;;;;3.85;2.10;;;;;;;17.52;67.79;101610.31;4982692;28;20010;-71
2022/06/10 07:50:21;;;;;;;3.65;2.20;;;;;;;17.62;69.03;101613.69;4976328;28;20007;-71
2022/06/10 07:52:47;;;;;;;6.93;2.38;;;;;;;17.56;68.89;101614.34;4978675;28;20014;-70
2022/06/10 07:55:13;;;;;;;4.22;2.35;;;;;;;17.64;67.24;101618.88;4980095;28;20026;-71
2022/06/10 07:57:38;;;;;;;5.32;2.53;;;;;;;17.60;66.90;101615.72;4978620;28;20057;-71
2022/06/10 08:00:04;;;;;;;5.10;1.90;;;;;;;17.58;67.42;101601.63;4939310;28;20046;-70
2022/06/10 08:02:29;;;;;;;2.28;2.08;;;;;;;17.68;66.75;101598.81;4958143;28;20107;-71
2022/06/10 08:04:55;;;;;;;3.33;2.13;;;;;;;17.92;64.88;101613.31;4937946;28;20029;-71
2022/06/10 08:07:21;;;;;;;9.80;3.05;;;;;;;18.19;66.00;101602.31;4967893;28;20046;-72
2022/06/10 08:09:46;;;;;;;4.90;2.30;;;;;;;18.41;64.78;101609.88;4952519;28;20176;-72
2022/06/10 08:12:11;;;;;;;6.53;2.10;;;;;;;18.45;64.78;101612.03;4978632;28;20026;-72
2022/06/10 08:14:37;;;;;;;3.08;1.85;;;;;;;18.51;62.95;101610.53;4981937;28;20932;-71
2022/06/10 08:17:06;;;;;;;3.08;1.95;;;;;;;18.69;62.35;101615.72;4962904;28;20057;-70
2022/06/10 08:19:32;;;;;;;4.25;1.80;;;;;;;18.73;62.94;101617.06;4964546;28;20062;-71
2022/06/10 08:24:55;;;;;;;3.85;2.20;;;;;;;18.85;63.01;101617.53;4925097;28;20014;-72
2022/06/10 08:27:22;;;;;;;4.63;2.20;;;;;;;18.92;61.73;101617.72;4971015;28;20035;-72
2022/06/10 08:29:48;;;;;;;4.25;1.90;;;;;;;18.93;62.72;101619.41;4960939;28;20014;-71
2022/06/10 08:32:13;;;;;;;3.78;1.85;;;;;;;18.96;62.66;101614.53;4979548;28;20012;-71
2022/06/10 08:34:41;;;;;;;5.50;2.30;;;;;;;18.93;63.68;101614.88;4988115;28;20809;-72
2022/06/10 08:37:07;;;;;;;2.42;1.83;;;;;;;19.17;63.35;101611.28;4965217;28;20333;-72
2022/06/10 08:39:32;;;;;;;4.38;2.38;;;;;;;19.23;61.85;101615.13;4959486;28;20030;-72
2022/06/10 08:42:27;;;;;;;3.97;1.73;;;;;;;19.53;62.37;101626.94;4972140;28;20030;-72
2022/06/10 08:45:03;;;;;;;4.75;1.77;;;;;;;19.83;60.03;101616.41;4996310;28;20048;-71
2022/06/10 08:47:35;;;;;;;3.90;1.90;;;;;;;19.97;59.92;101614.00;4948664;28;21035;-72
2022/06/10 08:50:06;;;;;;;7.20;1.98;;;;;;;20.23;55.53;101622.53;4998957;28;20341;-73
2022/06/10 08:53:09;;;;;;;5.70;2.28;;;;;;;20.18;56.37;101614.16;4982531;28;20026;-71
2022/06/10 08:55:45;;;;;;;2.35;1.65;;;;;;;20.57;56.06;101610.50;4991292;28;20014;-69
2022/06/10 08:58:18;;;;;;;5.72;2.20;;;;;;;20.63;55.61;101606.25;4965388;28;20120;-72
2022/06/10 09:00:44;;;;;;;8.07;2.20;;;;;;;20.76;53.60;101611.03;4979123;28;20038;-72
2022/06/10 09:03:30;;;;;;;3.72;2.08;;;;;;;20.51;55.82;101611.22;4962865;28;20947;-71
2022/06/10 09:06:01;;;;;;;4.55;1.85;;;;;;;20.29;55.88;101609.38;4997419;28;20133;-72
2022/06/10 09:08:47;;;;;;;7.03;2.30;;;;;;;20.35;54.38;101608.69;4963371;28;20044;-70
2022/06/10 09:11:37;;;;;;;3.92;1.60;;;;;;;20.31;53.78;101607.38;4983664;28;20143;-73
2022/06/10 09:14:17;;;;;;;3.50;2.05;;;;;;;20.93;53.21;101615.22;4998166;28;20241;-71
2022/06/10 09:16:45;;;;;;;4.20;2.42;;;;;;;21.33;51.05;101606.03;4964384;28;20025;-70
2022/06/10 09:19:33;;;;;;;5.88;2.03;;;;;;;21.71;52.04;101603.22;4965327;28;20739;-70
2022/06/10 09:22:08;;;;;;;2.80;1.60;;;;;;;22.04;49.66;101626.97;4960183;28;20347;-71
2022/06/10 09:24:36;;;;;;;4.18;1.70;;;;;;;21.79;48.47;101616.56;4998046;28;20122;-72
2022/06/10 09:27:21;;;;;;;6.22;1.55;;;;;;;21.78;49.64;101612.19;4979669;28;21048;-71
2022/06/10 09:29:47;;;;;;;4.15;1.80;;;;;;;21.70;48.93;101615.00;4995524;28;20018;-70
2022/06/10 09:32:55;;;;;;;7.00;2.20;;;;;;;21.48;48.58;101619.50;4997520;28;20078;-71
2022/06/10 09:35:39;;;;;;;4.65;1.55;;;;;;;21.78;48.51;101612.19;4986578;28;20073;-70
2022/06/10 09:38:15;;;;;;;;;;;;;;;21.81;50.17;101614.50;4999445;28;20303;-73
2022/06/10 09:40:56;;;;;;;3.00;1.50;;;;;;;21.87;50.37;101615.59;4999280;28;20140;-73
2022/06/10 09:43:51;;;;;;;5.25;1.70;;;;;;;21.85;49.51;101610.41;4984659;28;20110;-71
2022/06/10 09:46:39;;;;;;;3.17;1.48;;;;;;;21.65;49.25;101609.38;4996625;28;20040;-71
2022/06/10 09:49:36;;;;;;;3.35;1.52;;;;;;;21.61;49.75;101609.72;4986277;28;20025;-72
2022/06/10 09:52:15;;;;;;;4.72;1.77;;;;;;;21.65;51.89;101609.38;4987334;28;20033;-72
2022/06/10 09:55:13;;;;;;;1.92;1.40;;;;;;;21.65;50.37;101609.38;4979210;28;20013;-71
2022/06/10 09:58:08;;;;;;;5.88;1.70;;;;;;;21.49;50.72;101613.06;4987907;28;20121;-72
2022/06/10 10:00:48;;;;;;;3.45;1.33;;;;;;;21.53;51.14;101611.69;4994133;28;20933;-71
2022/06/10 10:03:37;;;;;;;4.25;1.70;;;;;;;21.47;52.17;101613.25;4978170;28;20033;-72
2022/06/10 10:06:20;;;;;;;4.60;1.65;;;;;;;21.48;52.46;101609.53;4956025;28;20986;-71
2022/06/10 10:09:13;;;;;;;8.02;1.90;;;;;;;21.81;54.70;101614.50;4949415;28;20037;-72
2022/06/10 10:11:46;;;;;;;5.32;2.08;;;;;;;22.10;53.92;101602.81;4973404;28;20024;-71
2022/06/10 10:14:17;;;;;;;5.78;1.70;;;;;;;22.55;50.48;101610.69;4926784;28;20072;-74
2022/06/10 10:16:45;;;;;;;10.93;1.65;;;;;;;22.74;49.95;101608.34;4955591;28;20026;-72
2022/06/10 10:19:31;;;;;;;8.68;2.13;;;;;;;22.47;49.42;101605.44;4974121;28;20822;-71
2022/06/10 10:22:06;;;;;;;4.65;1.67;;;;;;;22.52;48.67;101599.47;4957654;28;20095;-72
2022/06/10 10:24:36;;;;;;;6.55;1.65;;;;;;;22.43;50.09;101601.47;4962200;28;20445;-73
2022/06/10 10:27:02;;;;;;;2.38;1.35;;;;;;;22.36;50.52;101601.41;4948898;28;20012;-70
2022/06/10 10:29:33;;;;;;;5.60;1.80;;;;;;;22.14;50.05;101605.97;4963330;28;20006;-71
2022/06/10 10:32:12;;;;;;;5.35;1.73;;;;;;;22.22;48.65;101605.81;4964368;28;20032;-71
2022/06/10 10:34:39;;;;;;;5.25;1.80;;;;;;;22.39;49.16;101595.63;4947244;28;20842;-70
2022/06/10 10:37:18;;;;;;;4.78;2.00;;;;;;;22.67;47.42;101597.50;4961849;28;20003;-72
2022/06/10 10:39:49;;;;;;;4.28;1.67;;;;;;;22.64;47.91;101593.31;4965427;28;20029;-70
2022/06/10 10:42:23;;;;;;;2.58;1.35;;;;;;;22.52;49.36;101588.66;4975081;28;21066;-72
2022/06/10 10:45:06;;;;;;;3.35;1.48;;;;;;;22.35;48.82;101593.50;4961499;28;20566;-72
2022/06/10 10:47:32;;;;;;;3.63;1.50;;;;;;;22.06;49.70;101595.31;4971472;28;20029;-72
2022/06/10 10:50:06;;;;;;;2.67;1.42;;;;;;;21.84;49.84;101599.84;4964196;28;20010;-69
2022/06/10 10:52:34;;;;;;;6.00;1.40;;;;;;;21.59;51.72;101586.72;5014405;28;20134;-72
2022/06/10 10:55:20;;;;;;;4.05;1.40;;;;;;;21.30;51.78;101587.56;5016601;28;20075;-73
2022/06/10 10:58:07;;;;;;;3.83;1.30;;;;;;;21.38;51.53;101582.91;4941812;28;21003;-71
2022/06/10 11:00:36;;;;;;;1.58;1.23;;;;;;;21.48;51.52;101588.00;4987666;28;20056;-72
2022/06/10 11:03:01;;;;;;;1.88;1.13;;;;;;;21.81;51.05;101586.75;4975808;28;20028;-72
2022/06/10 11:05:35;;;;;;;3.97;1.30;;;;;;;22.32;51.00;101588.47;4996931;28;20441;-72
2022/06/10 11:08:21;;;;;;;1.52;1.05;;;;;;;22.57;49.85;101586.22;4982398;28;20065;-73
2022/06/10 11:10:59;;;;;;;4.28;1.30;;;;;;;22.86;49.07;101587.03;4996450;28;20006;-72
2022/06/10 11:13:44;;;;;;;2.90;1.23;;;;;;;22.79;48.14;101584.31;4994225;28;20064;-71
2022/06/10 11:16:38;;;;;;;4.40;1.05;;;;;;;22.71;46.60;101589.84;5002939;28;20010;-71
2022/06/10 11:19:11;;;;;;;3.75;1.08;;;;;;;22.67;50.01;101585.88;4996951;28;20037;-72
2022/06/10 11:22:01;;;;;;;1.17;0.90;;;;;;;22.95;48.40;101581.28;4999784;28;20037;-72
2022/06/10 11:24:32;;;;;;;1.13;0.90;;;;;;;23.20;50.42;101585.41;5015003;28;20014;-72
2022/06/10 11:26:59;;;;;;;1.98;0.90;;;;;;;23.39;48.46;101587.34;5000194;28;20077;-72
2022/06/10 11:29:25;;;;;;;3.25;1.20;;;;;;;23.20;47.44;101585.41;4967864;28;20013;-72
2022/06/10 11:31:55;;;;;;;1.50;0.77;;;;;;;23.47;48.48;101570.97;4998436;28;20522;-72
2022/06/10 11:34:42;;;;;;;1.48;0.90;;;;;;;23.23;46.69;101568.81;4988651;28;20515;-71
2022/06/10 11:37:38;;;;;;;3.05;0.90;;;;;;;23.43;46.77;101568.88;4992258;28;20014;-71
2022/06/10 11:40:12;;;;;;;3.72;1.25;;;;;;;23.69;47.93;101573.53;4988153;28;20033;-70
2022/06/10 11:42:46;;;;;;;1.95;0.98;;;;;;;23.69;47.05;101561.88;4983733;28;21147;-72
2022/06/10 11:45:19;;;;;;;1.70;0.90;;;;;;;23.69;48.52;101559.19;4985196;28;20021;-71
2022/06/10 11:47:58;;;;;;;1.60;0.80;;;;;;;23.43;47.89;101568.88;4955713;28;20124;-70
2022/06/10 11:50:32;;;;;;;2.60;0.98;;;;;;;23.53;46.54;101566.63;4940128;28;20077;-71
2022/06/10 11:53:10;;;;;;;3.97;1.00;;;;;;;23.73;46.48;101565.84;4959317;28;20022;-71
2022/06/10 11:55:38;;;;;;;2.42;0.90;;;;;;;23.63;47.28;101569.78;4956311;28;20809;-72